createdAt,value
2022-10-31T00:01:29.080Z,235.50
2022-10-31T00:04:13.357Z,228.48
2022-10-31T00:07:02.089Z,239.05
2022-10-31T00:09:44.373Z,248.05
2022-10-31T00:12:33.007Z,234.13
2022-10-31T00:15:16.362Z,218.63
2022-10-31T00:18:05.089Z,226.50
2022-10-31T00:20:54.993Z,226.85
2022-10-31T00:23:37.465Z,223.32
2022-10-31T00:26:27.072Z,220.63
2022-10-31T00:29:15.358Z,222.23
2022-10-31T00:32:05.012Z,223.68
2022-10-31T00:34:47.406Z,232.85
2022-10-31T00:37:36.139Z,215.98
2022-10-31T00:40:19.361Z,220.63
2022-10-31T00:43:09.164Z,214.63
2022-10-31T00:45:52.379Z,224.20
2022-10-31T00:48:41.054Z,212.02
2022-10-31T00:51:29.991Z,205.35
2022-10-31T00:54:19.147Z,222.02
2022-10-31T00:57:01.357Z,205.93
2022-10-31T00:59:50.060Z,213.00
2022-10-31T01:02:39.142Z,203.07
2022-10-31T01:05:29.134Z,209.75
2022-10-31T01:08:11.335Z,224.40
2022-10-31T01:11:14.108Z,217.43
2022-10-31T01:13:59.501Z,210.68
2022-10-31T01:16:48.992Z,214.50
2022-10-31T01:19:38.063Z,209.27
2022-10-31T01:22:20.287Z,204.45
2022-10-31T01:25:09.249Z,208.57
2022-10-31T01:27:51.259Z,205.63
2022-10-31T01:30:39.979Z,197.55
2022-10-31T01:33:34.907Z,205.60
2022-10-31T01:36:38.081Z,208.73
2022-10-31T01:39:23.359Z,212.20
2022-10-31T01:42:12.012Z,215.45
2022-10-31T01:45:29.990Z,218.05
2022-10-31T01:48:24.374Z,205.13
2022-10-31T01:51:07.095Z,210.15
2022-10-31T01:53:56.817Z,209.05
2022-10-31T01:56:43.074Z,203.43
2022-10-31T01:59:35.971Z,201.07
2022-10-31T02:02:25.132Z,209.65
2022-10-31T02:05:11.615Z,199.75
2022-10-31T02:08:18.036Z,209.40
2022-10-31T02:11:08.985Z,198.07
2022-10-31T02:13:51.339Z,206.77
2022-10-31T02:16:40.066Z,206.38
2022-10-31T02:19:31.339Z,199.85
2022-10-31T02:22:38.007Z,189.73
2022-10-31T02:26:05.125Z,199.70
2022-10-31T02:29:09.008Z,209.77
2022-10-31T02:32:22.083Z,204.27
2022-10-31T02:35:07.334Z,202.88
2022-10-31T02:38:12.466Z,203.70
2022-10-31T02:41:41.347Z,205.07
2022-10-31T02:44:47.074Z,208.57
2022-10-31T02:47:43.089Z,206.32
2022-10-31T02:50:36.382Z,191.23
2022-10-31T02:53:26.104Z,198.40
2022-10-31T02:56:20.950Z,208.90
2022-10-31T02:59:13.336Z,204.15
2022-10-31T03:02:14.147Z,205.68
2022-10-31T03:05:13.102Z,218.02
2022-10-31T03:08:16.370Z,201.85
2022-10-31T03:11:09.047Z,224.00
2022-10-31T03:14:10.090Z,219.10
2022-10-31T03:17:04.969Z,214.32
2022-10-31T03:19:57.343Z,236.00
2022-10-31T03:22:51.984Z,249.70
2022-10-31T03:25:35.366Z,227.88
2022-10-31T03:31:12.341Z,234.95
2022-10-31T03:34:04.956Z,236.02
2022-10-31T03:36:50.333Z,239.98
2022-10-31T03:39:39.966Z,239.80
2022-10-31T03:42:30.333Z,234.68
2022-10-31T03:45:32.071Z,247.30
2022-10-31T03:48:15.322Z,245.85
2022-10-31T03:51:32.053Z,243.10
2022-10-31T03:54:46.418Z,238.35
2022-10-31T03:57:57.152Z,240.43
2022-10-31T04:00:42.345Z,247.43
2022-10-31T04:03:37.968Z,247.55
2022-10-31T04:06:25.379Z,246.20
2022-10-31T04:09:18.106Z,245.80
2022-10-31T04:12:05.385Z,237.90
2022-10-31T04:15:16.053Z,231.63
2022-10-31T04:18:03.576Z,242.30
2022-10-31T04:20:53.074Z,236.43
2022-10-31T04:23:36.558Z,232.93
2022-10-31T04:26:40.067Z,234.35
2022-10-31T04:29:22.390Z,225.73
2022-10-31T04:32:17.102Z,233.88
2022-10-31T04:35:07.351Z,238.63
2022-10-31T04:37:50.127Z,249.43
2022-10-31T04:40:32.473Z,259.17
2022-10-31T04:43:24.093Z,235.48
2022-10-31T04:46:08.488Z,231.13
2022-10-31T04:48:56.951Z,235.00
2022-10-31T04:51:46.050Z,225.05
2022-10-31T04:54:28.333Z,244.85
2022-10-31T04:57:17.069Z,229.38
2022-10-31T04:59:59.367Z,230.30
2022-10-31T05:02:56.066Z,226.13
2022-10-31T05:05:39.540Z,219.43
2022-10-31T05:08:29.049Z,225.80
2022-10-31T05:11:15.145Z,225.07
2022-10-31T05:14:04.059Z,216.35
2022-10-31T05:17:06.492Z,215.88
2022-10-31T05:20:22.066Z,235.02
2022-10-31T05:23:36.349Z,218.65
2022-10-31T05:26:24.961Z,225.88
2022-10-31T05:29:08.393Z,227.82
2022-10-31T05:31:57.064Z,227.98
2022-10-31T05:35:05.395Z,215.13
2022-10-31T05:38:18.049Z,217.65
2022-10-31T05:41:04.296Z,200.02
2022-10-31T05:43:55.098Z,218.35
2022-10-31T05:46:39.344Z,213.30
2022-10-31T05:49:36.970Z,209.15
2022-10-31T05:52:38.626Z,222.45
2022-10-31T05:55:41.068Z,213.93
2022-10-31T05:58:35.123Z,200.73
2022-10-31T06:01:17.429Z,210.27
2022-10-31T06:04:06.115Z,205.80
2022-10-31T06:06:54.955Z,204.10
2022-10-31T06:09:44.067Z,209.40
2022-10-31T06:12:36.059Z,199.82
2022-10-31T06:15:39.351Z,205.57
2022-10-31T06:18:28.056Z,195.90
2022-10-31T06:21:13.689Z,209.48
2022-10-31T06:24:06.975Z,208.85
2022-10-31T06:27:11.045Z,207.77
2022-10-31T06:29:53.407Z,198.02
2022-10-31T06:32:51.032Z,193.45
2022-10-31T06:35:39.974Z,202.52
2022-10-31T06:38:28.784Z,192.90
2022-10-31T06:41:14.986Z,194.60
2022-10-31T06:43:58.266Z,203.00
2022-10-31T06:47:06.979Z,198.18
2022-10-31T06:50:12.320Z,194.35
2022-10-31T06:53:14.054Z,188.57
2022-10-31T06:55:58.334Z,194.55
2022-10-31T06:58:52.047Z,189.45
2022-10-31T07:01:54.370Z,197.65
2022-10-31T07:04:43.074Z,179.80
2022-10-31T07:07:34.080Z,185.90
2022-10-31T07:10:16.459Z,180.70
2022-10-31T07:13:16.056Z,185.07
2022-10-31T07:16:04.353Z,178.60
2022-10-31T07:18:52.973Z,172.52
2022-10-31T07:21:44.071Z,192.82
2022-10-31T07:24:33.334Z,202.05
2022-10-31T07:27:41.639Z,181.20
2022-10-31T07:30:26.291Z,179.07
2022-10-31T07:33:14.983Z,183.30
2022-10-31T07:36:22.038Z,175.23
2022-10-31T07:39:10.331Z,159.38
2022-10-31T07:41:58.998Z,137.65
2022-10-31T07:44:42.334Z,124.57
2022-10-31T07:47:53.983Z,123.15
2022-10-31T07:51:03.129Z,129.32
2022-10-31T07:54:21.249Z,108.95
2022-10-31T07:57:10.022Z,132.50
2022-10-31T07:59:58.972Z,147.23
2022-10-31T08:02:57.214Z,159.02
2022-10-31T08:06:14.968Z,178.13
2022-10-31T08:09:06.371Z,143.07
2022-10-31T08:11:57.341Z,160.50
2022-10-31T08:14:48.085Z,160.93
2022-10-31T08:17:31.635Z,155.48
2022-10-31T08:20:21.013Z,138.65
2022-10-31T08:23:07.241Z,143.10
2022-10-31T08:25:57.953Z,145.05
2022-10-31T08:28:40.227Z,149.80
2022-10-31T08:31:33.452Z,138.03
2022-10-31T08:34:47.955Z,138.13
2022-10-31T08:38:03.319Z,128.68
2022-10-31T08:40:47.332Z,135.85
2022-10-31T08:43:35.947Z,127.13
2022-10-31T08:46:25.026Z,123.97
2022-10-31T08:49:14.442Z,121.85
2022-10-31T08:51:59.302Z,123.20
2022-10-31T08:54:52.953Z,140.55
2022-10-31T08:58:11.357Z,122.97
2022-10-31T09:01:08.138Z,129.07
2022-10-31T09:03:52.317Z,128.10
2022-10-31T09:06:50.304Z,130.00
2022-10-31T09:09:44.104Z,125.43
2022-10-31T09:12:28.349Z,123.10
2022-10-31T09:15:35.068Z,126.22
2022-10-31T09:18:30.311Z,130.93
2022-10-31T09:21:18.957Z,138.52
2022-10-31T09:24:08.344Z,122.00
2022-10-31T09:26:51.966Z,122.22
2022-10-31T09:29:37.254Z,130.13
2022-10-31T09:32:28.969Z,131.85
2022-10-31T09:35:20.461Z,133.55
2022-10-31T09:38:08.052Z,159.40
2022-10-31T09:41:29.410Z,136.52
2022-10-31T09:44:27.041Z,145.20
2022-10-31T09:47:31.085Z,132.15
2022-10-31T09:50:52.168Z,156.77
2022-10-31T09:54:15.946Z,148.90
2022-10-31T09:56:59.308Z,146.27
2022-10-31T09:59:51.255Z,135.25
2022-10-31T10:02:59.372Z,146.27
2022-10-31T10:06:01.094Z,132.07
2022-10-31T10:09:05.292Z,138.20
2022-10-31T10:12:55.041Z,134.65
2022-10-31T10:15:52.186Z,132.35
2022-10-31T10:19:02.052Z,140.40
2022-10-31T10:22:17.059Z,125.40
2022-10-31T10:25:20.320Z,127.55
2022-10-31T10:28:16.934Z,119.55
2022-10-31T10:31:08.980Z,126.28
2022-10-31T10:34:00.310Z,119.28
2022-10-31T10:36:47.064Z,122.18
2022-10-31T10:39:58.317Z,120.13
2022-10-31T10:42:58.973Z,112.25
2022-10-31T10:45:59.985Z,124.00
2022-10-31T10:48:58.058Z,109.18
2022-10-31T10:52:02.757Z,105.88
2022-10-31T10:55:07.107Z,109.03
2022-10-31T10:58:12.327Z,108.97
2022-10-31T11:00:56.155Z,114.03
2022-10-31T11:03:45.051Z,128.10
2022-10-31T11:06:31.329Z,138.13
2022-10-31T11:09:20.050Z,148.45
2022-10-31T11:12:03.298Z,144.52
2022-10-31T11:15:02.976Z,157.82
2022-10-31T11:17:56.293Z,161.55
2022-10-31T11:20:45.322Z,150.88
2022-10-31T11:23:28.970Z,162.70
2022-10-31T11:26:30.330Z,164.50
2022-10-31T11:29:16.950Z,163.20
2022-10-31T11:32:02.626Z,172.63
2022-10-31T11:34:58.963Z,176.65
2022-10-31T11:37:52.924Z,173.63
2022-10-31T11:40:42.949Z,169.32
2022-10-31T11:43:32.948Z,166.02
2022-10-31T11:46:27.356Z,188.52
2022-10-31T11:49:25.030Z,169.13
2022-10-31T11:52:17.944Z,167.55
2022-10-31T11:55:23.036Z,169.05
2022-10-31T11:58:06.332Z,162.70
2022-10-31T12:00:59.967Z,174.77
2022-10-31T12:04:11.327Z,182.75
2022-10-31T12:07:02.027Z,184.85
2022-10-31T12:09:46.353Z,168.32
2022-10-31T12:12:51.951Z,176.95
2022-10-31T12:15:45.028Z,176.32
2022-10-31T12:19:12.946Z,180.05
2022-10-31T12:22:16.930Z,179.38
2022-10-31T12:25:27.303Z,182.95
2022-10-31T12:28:23.947Z,184.38
2022-10-31T12:31:25.660Z,190.73
2022-10-31T12:34:18.074Z,188.13
2022-10-31T12:37:26.334Z,194.05
2022-10-31T12:40:28.037Z,185.00
2022-10-31T12:43:43.293Z,172.65
2022-10-31T12:46:53.950Z,182.25
2022-10-31T12:49:53.304Z,195.27
2022-10-31T12:53:03.276Z,179.13
2022-10-31T12:56:00.730Z,182.13
2022-10-31T12:58:55.948Z,195.35
2022-10-31T13:02:13.018Z,190.30
2022-10-31T13:05:13.872Z,186.15
2022-10-31T13:08:11.937Z,181.60
2022-10-31T13:11:03.472Z,197.63
2022-10-31T13:14:16.045Z,188.82
2022-10-31T13:16:59.506Z,178.90
2022-10-31T13:19:52.038Z,190.13
2022-10-31T13:22:48.032Z,193.07
2022-10-31T13:25:47.942Z,199.13
2022-10-31T13:29:00.953Z,199.35
2022-10-31T13:31:51.308Z,212.77
2022-10-31T13:35:05.023Z,218.32
2022-10-31T13:37:55.021Z,223.73
2022-10-31T13:41:09.978Z,231.27
2022-10-31T13:44:01.391Z,223.45
2022-10-31T13:46:52.027Z,221.13
2022-10-31T13:49:40.520Z,216.05
2022-10-31T13:52:34.011Z,204.15
2022-10-31T13:56:00.029Z,219.85
2022-10-31T13:59:05.709Z,213.20
2022-10-31T14:02:04.050Z,222.80
2022-10-31T14:05:03.294Z,218.30
2022-10-31T14:08:00.284Z,223.50
2022-10-31T14:10:50.767Z,235.98
2022-10-31T14:13:46.039Z,234.48
2022-10-31T14:16:34.215Z,228.10
2022-10-31T14:19:31.022Z,233.48
2022-10-31T14:22:24.838Z,227.75
2022-10-31T14:25:14.028Z,230.15
2022-10-31T14:27:57.056Z,222.98
2022-10-31T14:30:47.055Z,238.02
2022-10-31T14:33:46.882Z,218.73
2022-10-31T14:37:05.064Z,226.35
2022-10-31T14:40:05.391Z,239.95
2022-10-31T14:43:34.914Z,231.43
2022-10-31T14:46:35.344Z,238.95
2022-10-31T14:49:44.023Z,236.70
2022-10-31T14:52:28.293Z,230.60
2022-10-31T14:55:22.119Z,229.70
2022-10-31T14:58:19.038Z,232.10
2022-10-31T15:01:01.800Z,222.27
2022-10-31T15:04:22.274Z,221.60
2022-10-31T15:07:37.484Z,223.15
2022-10-31T15:10:41.020Z,213.85
2022-10-31T15:13:24.571Z,213.82
2022-10-31T15:16:13.087Z,213.00
2022-10-31T15:19:05.553Z,219.02
2022-10-31T15:22:00.039Z,204.07
2022-10-31T15:24:42.484Z,204.00
2022-10-31T15:27:34.032Z,210.10
2022-10-31T15:30:29.953Z,207.85
2022-10-31T15:33:24.664Z,208.88
2022-10-31T15:36:15.068Z,201.95
2022-10-31T15:39:06.016Z,215.32
2022-10-31T15:42:03.410Z,207.43
2022-10-31T15:44:50.215Z,197.50
2022-10-31T15:47:41.003Z,209.95
2022-10-31T15:50:43.364Z,197.00
2022-10-31T15:53:57.471Z,199.18
2022-10-31T15:56:41.285Z,209.65
2022-10-31T15:59:35.016Z,206.45
2022-10-31T16:02:20.433Z,195.02
2022-10-31T16:05:11.016Z,194.45
2022-10-31T16:08:01.370Z,209.10
2022-10-31T16:10:50.016Z,197.40
2022-10-31T16:13:50.327Z,206.60
2022-10-31T16:16:42.025Z,201.85
2022-10-31T16:19:43.300Z,213.05
2022-10-31T16:22:37.956Z,211.50
2022-10-31T16:25:24.275Z,213.65
2022-10-31T16:28:24.552Z,213.45
2022-10-31T16:31:15.998Z,224.15
2022-10-31T16:34:26.636Z,216.77
2022-10-31T16:37:11.294Z,208.57
2022-10-31T16:40:00.109Z,210.93
2022-10-31T16:42:42.383Z,216.95
2022-10-31T16:45:33.031Z,218.95
2022-10-31T16:48:21.306Z,220.05
2022-10-31T16:51:09.978Z,219.38
2022-10-31T16:54:00.094Z,219.70
2022-10-31T16:56:50.298Z,205.88
2022-10-31T16:59:33.037Z,215.38
2022-10-31T17:02:24.604Z,213.18
2022-10-31T17:05:07.014Z,216.73
2022-10-31T17:07:50.361Z,216.50
2022-10-31T17:10:40.084Z,208.95
2022-10-31T17:13:37.376Z,210.40
2022-10-31T17:16:22.966Z,207.07
2022-10-31T17:19:05.661Z,213.38
2022-10-31T17:21:56.362Z,215.88
2022-10-31T17:24:38.225Z,211.80
2022-10-31T17:27:27.160Z,225.38
2022-10-31T17:30:11.433Z,213.60
2022-10-31T17:33:01.256Z,219.57
2022-10-31T17:35:51.609Z,224.10
2022-10-31T17:38:34.035Z,216.88
2022-10-31T17:41:23.100Z,227.63
2022-10-31T17:44:07.514Z,220.35
2022-10-31T17:46:56.004Z,228.82
2022-10-31T17:49:44.943Z,232.15
2022-10-31T17:52:34.082Z,236.48
2022-10-31T17:55:17.315Z,227.63
2022-10-31T17:58:06.075Z,243.70
2022-10-31T18:00:51.359Z,249.73
2022-10-31T18:03:41.068Z,246.70
2022-10-31T18:06:23.341Z,233.77
2022-10-31T18:09:14.904Z,248.68
2022-10-31T18:11:57.325Z,234.07
2022-10-31T18:14:48.589Z,240.55
2022-10-31T18:17:31.329Z,233.10
2022-10-31T18:20:21.065Z,222.65
2022-10-31T18:23:03.426Z,228.82
2022-10-31T18:25:52.011Z,226.85
2022-10-31T18:28:40.903Z,229.20
2022-10-31T18:31:30.365Z,232.70
2022-10-31T18:34:18.946Z,235.80
2022-10-31T18:37:01.301Z,243.25
2022-10-31T18:39:49.920Z,240.13
2022-10-31T18:42:34.830Z,244.13
2022-10-31T18:45:33.907Z,249.80
2022-10-31T18:48:26.262Z,235.35
2022-10-31T18:51:16.961Z,242.32
2022-10-31T18:54:01.381Z,249.95
2022-10-31T18:56:49.995Z,236.65
2022-10-31T18:59:32.312Z,246.30
2022-10-31T19:02:24.983Z,245.02
2022-10-31T19:05:07.650Z,244.77
2022-10-31T19:07:57.063Z,247.20
2022-10-31T19:10:42.351Z,246.77
2022-10-31T19:13:31.004Z,249.25
2022-10-31T19:16:22.348Z,249.35
2022-10-31T19:19:11.063Z,247.85
2022-10-31T19:21:53.351Z,246.38
2022-10-31T19:24:42.087Z,254.63
2022-10-31T19:27:24.438Z,258.77
2022-10-31T19:30:14.406Z,250.63
2022-10-31T19:32:57.046Z,256.95
2022-10-31T19:35:46.102Z,254.57
2022-10-31T19:38:28.308Z,264.42
2022-10-31T19:41:22.055Z,257.50
2022-10-31T19:49:46.322Z,258.58
2022-10-31T19:52:34.929Z,253.57
2022-10-31T19:55:17.305Z,252.48
2022-10-31T19:58:06.065Z,250.13
2022-10-31T20:00:48.381Z,255.85
2022-10-31T20:03:37.078Z,261.77
2022-10-31T20:06:34.327Z,262.08
2022-10-31T20:09:22.956Z,259.42
2022-10-31T20:12:05.749Z,259.45
2022-10-31T20:14:57.027Z,263.90
2022-10-31T20:17:45.910Z,250.40
2022-10-31T20:20:34.982Z,256.27
2022-10-31T20:23:17.432Z,252.07
2022-10-31T20:26:17.951Z,250.75
2022-10-31T20:29:07.026Z,249.80
2022-10-31T20:31:55.996Z,249.38
2022-10-31T20:34:44.948Z,264.80
2022-10-31T20:37:33.319Z,256.08
2022-10-31T20:40:15.994Z,269.08
2022-10-31T20:43:04.283Z,265.48
2022-10-31T20:45:47.039Z,262.80
2022-10-31T20:48:29.936Z,254.07
2022-10-31T20:51:22.026Z,260.80
2022-10-31T20:54:10.960Z,266.25
2022-10-31T20:56:59.994Z,255.07
2022-10-31T20:59:48.281Z,265.17
2022-10-31T21:02:31.009Z,258.83
2022-10-31T21:05:21.311Z,263.05
2022-10-31T21:08:03.003Z,259.48
2022-10-31T21:10:51.300Z,276.88
2022-10-31T21:13:36.464Z,262.85
2022-10-31T21:16:36.962Z,269.45
2022-10-31T21:19:20.998Z,273.45
2022-10-31T21:22:10.335Z,272.80
2022-10-31T21:24:51.893Z,278.65
2022-10-31T21:27:40.928Z,269.52
2022-10-31T21:30:23.329Z,262.60
2022-10-31T21:33:11.926Z,270.23
2022-10-31T21:36:00.316Z,259.52
2022-10-31T21:38:44.393Z,265.40
2022-10-31T21:41:33.205Z,268.65
2022-10-31T21:44:21.904Z,274.83
2022-10-31T21:47:10.295Z,271.20
2022-10-31T21:49:52.916Z,267.33
2022-10-31T21:52:41.283Z,265.65
2022-10-31T21:55:24.044Z,259.40
2022-10-31T21:58:06.205Z,268.05
2022-10-31T22:00:54.968Z,256.60
2022-10-31T22:03:48.279Z,274.27
2022-10-31T22:06:30.936Z,264.45
2022-10-31T22:09:24.312Z,266.37
2022-10-31T22:12:08.012Z,272.03
2022-10-31T22:14:56.926Z,262.75
2022-10-31T22:17:46.759Z,266.65
2022-10-31T22:20:29.179Z,251.82
2022-10-31T22:23:17.983Z,269.13
2022-10-31T22:26:15.393Z,273.88
2022-10-31T22:29:09.977Z,253.73
2022-10-31T22:31:58.555Z,257.15
2022-10-31T22:34:50.092Z,259.15
2022-10-31T22:37:38.303Z,275.80
2022-10-31T22:40:20.990Z,249.57
2022-10-31T22:43:03.403Z,278.80
2022-10-31T22:45:51.913Z,264.00
2022-10-31T22:48:46.985Z,247.82
2022-10-31T22:51:51.290Z,251.07
2022-10-31T22:54:39.912Z,251.30
2022-10-31T22:57:22.255Z,241.40
2022-10-31T23:00:12.081Z,253.07
2022-10-31T23:02:54.267Z,248.30
2022-10-31T23:05:43.017Z,245.52
2022-10-31T23:08:25.473Z,248.38
2022-10-31T23:11:27.956Z,243.75
2022-10-31T23:14:21.161Z,258.92
2022-10-31T23:17:03.234Z,241.45
2022-10-31T23:19:51.928Z,248.68
2022-10-31T23:22:34.193Z,249.65
2022-10-31T23:25:40.931Z,247.40
2022-10-31T23:28:23.229Z,241.18
2022-10-31T23:31:11.998Z,254.23
2022-10-31T23:34:06.833Z,245.18
2022-10-31T23:37:02.969Z,233.02
2022-10-31T23:39:52.276Z,242.10
2022-10-31T23:42:35.878Z,237.23
2022-10-31T23:45:25.020Z,242.02
2022-10-31T23:48:07.249Z,270.60
2022-10-31T23:50:55.993Z,252.95
2022-10-31T23:53:45.018Z,252.85
2022-10-31T23:56:34.037Z,242.57
2022-10-31T23:59:16.283Z,247.55
